createdAt,value
2018-03-06T00:00:50.164Z,5.98
2018-03-06T00:01:50.141Z,6.06
2018-03-06T00:02:50.120Z,6.03
2018-03-06T00:03:50.107Z,6.03
2018-03-06T00:04:50.081Z,6.06
2018-03-06T00:05:50.058Z,6.05
2018-03-06T00:06:50.041Z,6.16
2018-03-06T00:07:50.020Z,6.19
2018-03-06T00:08:50.003Z,6.16
2018-03-06T00:09:49.989Z,6.15
2018-03-06T00:10:49.960Z,6.21
2018-03-06T00:11:49.940Z,6.11
2018-03-06T00:12:49.920Z,6.18
2018-03-06T00:13:49.901Z,6.11
2018-03-06T00:14:49.878Z,6.03
2018-03-06T00:15:49.860Z,6.06
2018-03-06T00:16:49.893Z,6.02
2018-03-06T00:17:49.824Z,5.98
2018-03-06T00:18:49.797Z,5.95
2018-03-06T00:19:49.780Z,6.00
2018-03-06T00:20:49.767Z,5.98
2018-03-06T00:21:49.740Z,5.93
2018-03-06T00:22:49.720Z,5.84
2018-03-06T00:23:49.693Z,5.80
2018-03-06T00:24:49.673Z,5.85
2018-03-06T00:25:49.658Z,5.82
2018-03-06T00:26:49.633Z,5.76
2018-03-06T00:27:49.618Z,5.80
2018-03-06T00:28:49.594Z,5.77
2018-03-06T00:29:49.575Z,5.65
2018-03-06T00:30:49.558Z,5.70
2018-03-06T00:31:49.532Z,5.72
2018-03-06T00:32:49.520Z,5.70
2018-03-06T00:33:49.499Z,5.66
2018-03-06T00:34:49.473Z,5.65
2018-03-06T00:35:49.449Z,5.61
2018-03-06T00:36:49.433Z,5.65
2018-03-06T00:37:49.405Z,5.65
2018-03-06T00:38:49.388Z,5.69
2018-03-06T00:39:49.370Z,5.61
2018-03-06T00:40:49.349Z,5.59
2018-03-06T00:41:49.325Z,5.59
2018-03-06T00:42:49.308Z,5.55
2018-03-06T00:43:49.286Z,5.61
2018-03-06T00:44:49.265Z,5.67
2018-03-06T00:45:49.248Z,5.70
2018-03-06T00:46:49.220Z,5.57
2018-03-06T00:47:49.202Z,5.65
2018-03-06T00:48:49.185Z,5.65
2018-03-06T00:49:49.162Z,5.62
2018-03-06T00:50:49.143Z,5.57
2018-03-06T00:51:49.118Z,5.58
2018-03-06T00:52:49.100Z,5.62
2018-03-06T00:53:49.080Z,5.61
2018-03-06T00:54:49.059Z,5.59
2018-03-06T00:55:49.040Z,5.65
2018-03-06T00:56:49.019Z,5.57
2018-03-06T00:57:48.997Z,5.59
2018-03-06T00:58:48.980Z,5.57
2018-03-06T00:59:48.967Z,5.58
2018-03-06T01:00:48.932Z,5.57
2018-03-06T01:01:48.912Z,5.51
2018-03-06T01:02:48.899Z,5.57
2018-03-06T01:03:48.879Z,5.59
2018-03-06T01:04:48.860Z,5.59
2018-03-06T01:05:48.829Z,5.55
2018-03-06T01:06:48.812Z,5.41
2018-03-06T01:07:48.789Z,5.48
2018-03-06T01:08:48.768Z,5.51
2018-03-06T01:09:48.749Z,5.34
2018-03-06T01:10:48.778Z,5.37
2018-03-06T01:11:48.709Z,5.36
2018-03-06T01:12:48.688Z,5.33
2018-03-06T01:13:48.664Z,5.34
2018-03-06T01:14:48.701Z,5.29
2018-03-06T01:15:48.622Z,5.27
2018-03-06T01:16:48.606Z,5.29
2018-03-06T01:17:48.585Z,5.21
2018-03-06T01:18:48.565Z,5.22
2018-03-06T01:19:48.539Z,5.30
2018-03-06T01:20:48.520Z,5.32
2018-03-06T01:21:48.503Z,5.27
2018-03-06T01:22:48.479Z,5.33
2018-03-06T01:23:48.460Z,5.34
2018-03-06T01:24:48.433Z,5.37
2018-03-06T01:25:48.419Z,5.36
2018-03-06T01:26:48.448Z,5.30
2018-03-06T01:27:48.377Z,5.37
2018-03-06T01:28:48.355Z,5.33
2018-03-06T01:29:48.337Z,5.29
2018-03-06T01:30:48.316Z,5.29
2018-03-06T01:31:48.295Z,5.29
2018-03-06T01:32:48.273Z,5.22
2018-03-06T01:33:48.249Z,5.24
2018-03-06T01:34:48.228Z,5.22
2018-03-06T01:35:48.207Z,5.19
2018-03-06T01:36:48.249Z,5.22
2018-03-06T01:37:48.169Z,5.15
2018-03-06T01:38:48.199Z,5.18
2018-03-06T01:39:48.126Z,5.21
2018-03-06T01:40:48.107Z,5.21
2018-03-06T01:41:48.094Z,5.16
2018-03-06T01:42:48.071Z,5.16
2018-03-06T01:43:48.044Z,5.24
2018-03-06T01:44:48.020Z,5.07
2018-03-06T01:45:47.999Z,5.09
2018-03-06T01:46:47.978Z,5.12
2018-03-06T01:47:47.961Z,5.12
2018-03-06T01:48:47.940Z,5.16
2018-03-06T01:49:47.928Z,5.07
2018-03-06T01:50:47.901Z,5.07
2018-03-06T01:51:47.876Z,5.07
2018-03-06T01:52:47.863Z,5.04
2018-03-06T01:53:47.841Z,5.01
2018-03-06T01:54:47.815Z,5.03
2018-03-06T01:55:47.796Z,5.00
2018-03-06T01:56:47.770Z,5.01
2018-03-06T01:57:47.758Z,4.98
2018-03-06T01:58:47.724Z,5.03
2018-03-06T01:59:47.713Z,5.03
2018-03-06T02:00:47.684Z,4.96
2018-03-06T02:01:47.667Z,5.04
2018-03-06T02:02:47.651Z,4.94
2018-03-06T02:03:47.622Z,4.86
2018-03-06T02:04:47.599Z,5.01
2018-03-06T02:05:47.579Z,4.93
2018-03-06T02:06:47.560Z,4.98
2018-03-06T02:07:47.539Z,4.85
2018-03-06T02:08:47.516Z,4.85
2018-03-06T02:09:47.497Z,4.82
2018-03-06T02:10:47.481Z,4.83
2018-03-06T02:11:47.462Z,4.88
2018-03-06T02:12:47.435Z,4.82
2018-03-06T02:13:47.413Z,4.96
2018-03-06T02:14:47.395Z,4.93
2018-03-06T02:15:47.619Z,4.96
2018-03-06T02:16:47.351Z,4.94
2018-03-06T02:17:47.329Z,4.86
2018-03-06T02:18:47.307Z,4.79
2018-03-06T02:19:47.288Z,4.83
2018-03-06T02:20:47.267Z,4.85
2018-03-06T02:21:47.246Z,4.82
2018-03-06T02:22:47.229Z,4.91
2018-03-06T02:23:47.205Z,4.86
2018-03-06T02:24:47.179Z,4.89
2018-03-06T02:25:47.159Z,4.83
2018-03-06T02:26:47.193Z,4.78
2018-03-06T02:27:47.118Z,4.83
2018-03-06T02:28:47.165Z,4.85
2018-03-06T02:29:47.073Z,4.78
2018-03-06T02:30:47.214Z,4.83
2018-03-06T02:31:47.042Z,4.69
2018-03-06T02:32:47.143Z,4.67
2018-03-06T02:33:46.994Z,4.71
2018-03-06T02:34:46.976Z,4.64
2018-03-06T02:35:46.950Z,4.78
2018-03-06T02:36:46.930Z,4.64
2018-03-06T02:37:46.906Z,4.74
2018-03-06T02:38:46.986Z,4.75
2018-03-06T02:39:46.864Z,4.78
2018-03-06T02:40:46.903Z,4.67
2018-03-06T02:41:46.824Z,4.69
2018-03-06T02:42:46.821Z,4.66
2018-03-06T02:43:46.780Z,4.67
2018-03-06T02:44:46.761Z,4.63
2018-03-06T02:45:46.740Z,4.59
2018-03-06T02:46:46.810Z,4.63
2018-03-06T02:47:46.694Z,4.64
2018-03-06T02:48:46.676Z,4.64
2018-03-06T02:49:46.654Z,4.57
2018-03-06T02:50:46.669Z,4.57
2018-03-06T02:51:46.608Z,4.54
2018-03-06T02:52:46.728Z,4.56
2018-03-06T02:53:46.572Z,4.57
2018-03-06T02:54:46.653Z,4.57
2018-03-06T02:55:46.528Z,4.54
2018-03-06T02:56:46.632Z,4.45
2018-03-06T02:57:46.479Z,4.46
2018-03-06T02:58:46.463Z,4.49
2018-03-06T02:59:46.440Z,4.48
2018-03-06T03:00:46.534Z,4.43
2018-03-06T03:01:46.410Z,4.43
2018-03-06T03:02:46.456Z,4.41
2018-03-06T03:03:46.359Z,4.38
2018-03-06T03:04:46.330Z,4.31
2018-03-06T03:05:46.308Z,4.35
2018-03-06T03:06:46.315Z,4.27
2018-03-06T03:07:46.271Z,4.28
2018-03-06T03:08:46.249Z,4.27
2018-03-06T03:09:46.232Z,4.21
2018-03-06T03:10:46.243Z,4.20
2018-03-06T03:11:46.189Z,4.06
2018-03-06T03:12:46.159Z,4.00
2018-03-06T03:13:46.142Z,4.00
2018-03-06T03:14:46.119Z,4.00
2018-03-06T03:15:46.096Z,3.90
2018-03-06T03:16:46.083Z,3.90
2018-03-06T03:17:46.057Z,3.90
2018-03-06T03:18:46.033Z,3.82
2018-03-06T03:19:46.011Z,3.82
2018-03-06T03:20:45.990Z,3.78
2018-03-06T03:21:45.972Z,3.81
2018-03-06T03:22:45.946Z,3.84
2018-03-06T03:23:45.927Z,3.85
2018-03-06T03:24:45.917Z,3.88
2018-03-06T03:25:45.882Z,3.74
2018-03-06T03:26:45.860Z,3.69
2018-03-06T03:27:45.838Z,3.73
2018-03-06T03:28:45.817Z,3.72
2018-03-06T03:29:45.799Z,3.82
2018-03-06T03:30:45.773Z,3.81
2018-03-06T03:31:45.754Z,3.78
2018-03-06T03:32:45.738Z,3.80
2018-03-06T03:33:45.709Z,3.87
2018-03-06T03:34:45.688Z,3.90
2018-03-06T03:35:45.667Z,3.87
2018-03-06T03:36:45.645Z,3.85
2018-03-06T03:37:45.630Z,3.87
2018-03-06T03:38:45.611Z,3.85
2018-03-06T03:39:45.579Z,3.91
2018-03-06T03:40:45.557Z,3.81
2018-03-06T03:41:45.537Z,3.90
2018-03-06T03:42:45.515Z,3.85
2018-03-06T03:43:45.498Z,3.88
2018-03-06T03:44:45.470Z,3.91
2018-03-06T03:45:45.451Z,3.87
2018-03-06T03:46:45.431Z,3.84
2018-03-06T03:47:45.409Z,3.91
2018-03-06T03:48:45.391Z,3.92
2018-03-06T03:49:45.371Z,3.94
2018-03-06T03:50:45.341Z,3.94
2018-03-06T03:51:45.319Z,3.98
2018-03-06T03:52:45.299Z,3.94
2018-03-06T03:53:45.273Z,3.98
2018-03-06T03:54:45.259Z,4.02
2018-03-06T03:55:45.231Z,3.94
2018-03-06T03:56:45.213Z,4.05
2018-03-06T03:57:45.190Z,3.99
2018-03-06T03:58:45.169Z,4.00
2018-03-06T03:59:45.150Z,4.03
2018-03-06T04:00:45.123Z,3.92
2018-03-06T04:01:45.101Z,3.94
2018-03-06T04:02:45.081Z,3.99
2018-03-06T04:03:45.061Z,4.05
2018-03-06T04:04:45.040Z,4.10
2018-03-06T04:05:45.021Z,4.10
2018-03-06T04:06:44.995Z,4.03
2018-03-06T04:07:44.982Z,4.09
2018-03-06T04:08:44.954Z,4.00
2018-03-06T04:09:44.929Z,4.00
2018-03-06T04:10:44.906Z,4.05
2018-03-06T04:11:44.884Z,4.05
2018-03-06T04:12:44.877Z,4.09
2018-03-06T04:13:44.846Z,4.09
2018-03-06T04:14:44.829Z,4.09
2018-03-06T04:15:44.801Z,4.12
2018-03-06T04:16:44.779Z,4.09
2018-03-06T04:17:44.755Z,4.05
2018-03-06T04:18:44.739Z,4.08
2018-03-06T04:19:44.714Z,4.21
2018-03-06T04:20:44.688Z,4.21
2018-03-06T04:21:44.670Z,4.10
2018-03-06T04:22:44.646Z,4.16
2018-03-06T04:23:44.632Z,4.17
2018-03-06T04:24:44.601Z,4.06
2018-03-06T04:25:44.579Z,3.90
2018-03-06T04:26:44.560Z,4.05
2018-03-06T04:27:44.537Z,3.96
2018-03-06T04:28:44.520Z,3.88
2018-03-06T04:29:44.501Z,3.70
2018-03-06T04:30:44.472Z,3.72
2018-03-06T04:31:44.451Z,3.81
2018-03-06T04:32:44.430Z,3.88
2018-03-06T04:33:44.411Z,3.91
2018-03-06T04:34:44.387Z,3.88
2018-03-06T04:35:44.371Z,3.94
2018-03-06T04:36:44.342Z,3.92
2018-03-06T04:37:44.319Z,3.96
2018-03-06T04:38:44.298Z,3.94
2018-03-06T04:39:44.279Z,3.87
2018-03-06T04:40:44.255Z,3.82
2018-03-06T04:41:44.233Z,3.88
2018-03-06T04:42:44.220Z,3.85
2018-03-06T04:43:44.188Z,3.84
2018-03-06T04:44:44.167Z,3.80
2018-03-06T04:45:44.150Z,3.82
2018-03-06T04:46:44.127Z,3.81
2018-03-06T04:47:44.108Z,3.76
2018-03-06T04:48:44.081Z,3.72
2018-03-06T04:49:44.059Z,3.73
2018-03-06T04:50:44.041Z,3.82
2018-03-06T04:51:44.016Z,3.82
2018-03-06T04:52:43.999Z,3.81
2018-03-06T04:53:43.973Z,3.84
2018-03-06T04:54:43.948Z,3.81
2018-03-06T04:55:43.929Z,3.80
2018-03-06T04:56:43.915Z,3.82
2018-03-06T04:57:43.882Z,3.70
2018-03-06T04:58:43.870Z,3.74
2018-03-06T04:59:43.861Z,3.67
2018-03-06T05:00:43.818Z,3.76
2018-03-06T05:01:43.850Z,3.70
2018-03-06T05:02:43.776Z,3.66
2018-03-06T05:03:43.752Z,3.67
2018-03-06T05:04:43.741Z,3.64
2018-03-06T05:05:43.711Z,3.55
2018-03-06T05:06:43.690Z,3.54
2018-03-06T05:07:43.720Z,3.49
2018-03-06T05:08:43.646Z,3.62
2018-03-06T05:09:43.623Z,3.54
2018-03-06T05:10:43.599Z,3.54
2018-03-06T05:11:43.582Z,3.49
2018-03-06T05:12:43.555Z,3.51
2018-03-06T05:13:43.567Z,3.48
2018-03-06T05:14:43.521Z,3.48
2018-03-06T05:15:43.590Z,3.51
2018-03-06T05:16:43.467Z,3.49
2018-03-06T05:17:43.499Z,3.51
2018-03-06T05:18:43.428Z,3.54
2018-03-06T05:19:43.410Z,3.54
2018-03-06T05:20:43.380Z,3.54
2018-03-06T05:21:43.458Z,3.56
2018-03-06T05:22:43.344Z,3.51
2018-03-06T05:23:43.325Z,3.66
2018-03-06T05:24:43.297Z,3.63
2018-03-06T05:25:43.288Z,3.69
2018-03-06T05:26:43.250Z,3.62
2018-03-06T05:27:43.231Z,3.63
2018-03-06T05:28:43.212Z,3.55
2018-03-06T05:29:43.191Z,3.66
2018-03-06T05:30:43.164Z,3.63
2018-03-06T05:31:43.144Z,3.73
2018-03-06T05:32:43.117Z,3.67
2018-03-06T05:33:43.100Z,3.64
2018-03-06T05:34:43.076Z,3.67
2018-03-06T05:35:43.055Z,3.66
2018-03-06T05:36:43.033Z,3.67
2018-03-06T05:37:43.012Z,3.62
2018-03-06T05:38:42.991Z,3.62
2018-03-06T05:39:42.970Z,3.64
2018-03-06T05:40:42.942Z,3.63
2018-03-06T05:41:42.920Z,3.67
2018-03-06T05:42:42.898Z,3.66
2018-03-06T05:43:42.877Z,3.73
2018-03-06T05:44:42.860Z,3.70
2018-03-06T05:45:42.840Z,3.73
2018-03-06T05:46:42.819Z,3.67
2018-03-06T05:47:42.790Z,3.70
2018-03-06T05:48:42.765Z,3.69
2018-03-06T05:49:42.747Z,3.72
2018-03-06T05:50:42.731Z,3.73
2018-03-06T05:51:42.705Z,3.69
2018-03-06T05:52:42.682Z,3.72
2018-03-06T05:53:42.664Z,3.63
2018-03-06T05:54:42.641Z,3.64
2018-03-06T05:55:42.621Z,3.59
2018-03-06T05:56:42.596Z,3.60
2018-03-06T05:57:42.571Z,3.63
2018-03-06T05:58:42.547Z,3.63
2018-03-06T05:59:42.530Z,3.60
2018-03-06T06:00:42.509Z,3.62
2018-03-06T06:01:42.479Z,3.56
2018-03-06T06:02:42.463Z,3.69
2018-03-06T06:03:42.439Z,3.69
2018-03-06T06:04:42.416Z,3.64
2018-03-06T06:05:42.461Z,3.66
2018-03-06T06:06:42.376Z,3.63
2018-03-06T06:07:42.372Z,3.67
2018-03-06T06:08:42.330Z,3.69
2018-03-06T06:09:42.304Z,3.70
2018-03-06T06:10:42.292Z,3.70
2018-03-06T06:11:42.263Z,3.74
2018-03-06T06:12:42.239Z,3.82
2018-03-06T06:13:42.220Z,3.88
2018-03-06T06:14:42.196Z,3.98
2018-03-06T06:15:42.177Z,3.91
2018-03-06T06:16:42.153Z,3.87
2018-03-06T06:17:42.130Z,3.90
2018-03-06T06:18:42.108Z,3.87
2018-03-06T06:19:42.093Z,3.90
2018-03-06T06:20:42.074Z,3.91
2018-03-06T06:21:42.045Z,3.87
2018-03-06T06:22:42.026Z,3.87
2018-03-06T06:23:42.000Z,3.87
2018-03-06T06:24:41.984Z,3.87
2018-03-06T06:25:41.956Z,3.91
2018-03-06T06:26:41.939Z,3.90
2018-03-06T06:27:41.917Z,3.88
2018-03-06T06:28:41.900Z,3.91
2018-03-06T06:29:41.877Z,3.94
2018-03-06T06:30:41.848Z,3.99
2018-03-06T06:31:41.828Z,3.98
2018-03-06T06:32:41.806Z,3.99
2018-03-06T06:33:41.801Z,3.98
2018-03-06T06:34:41.765Z,4.00
2018-03-06T06:35:41.740Z,4.05
2018-03-06T06:36:41.718Z,3.98
2018-03-06T06:37:41.696Z,4.09
2018-03-06T06:38:41.680Z,4.06
2018-03-06T06:39:41.659Z,4.20
2018-03-06T06:40:41.630Z,4.08
2018-03-06T06:41:41.611Z,4.23
2018-03-06T06:42:41.593Z,4.21
2018-03-06T06:43:41.572Z,4.26
2018-03-06T06:44:41.551Z,4.42
2018-03-06T06:45:41.524Z,4.66
2018-03-06T06:46:41.506Z,4.88
2018-03-06T06:47:41.489Z,5.09
2018-03-06T06:48:41.461Z,5.36
2018-03-06T06:49:41.440Z,5.59
2018-03-06T06:50:41.419Z,5.59
2018-03-06T06:51:41.399Z,5.58
2018-03-06T06:52:41.386Z,5.77
2018-03-06T06:53:41.360Z,5.65
2018-03-06T06:54:41.344Z,5.77
2018-03-06T06:55:41.331Z,6.05
2018-03-06T06:56:41.301Z,6.24
2018-03-06T06:57:41.281Z,6.53
2018-03-06T06:58:41.268Z,6.71
2018-03-06T06:59:41.244Z,6.93
2018-03-06T07:00:41.225Z,6.99
2018-03-06T07:01:41.206Z,7.28
2018-03-06T07:02:41.193Z,7.39
2018-03-06T07:03:41.172Z,7.44
2018-03-06T07:04:41.149Z,7.58
2018-03-06T07:05:41.134Z,7.71
2018-03-06T07:06:41.114Z,7.71
2018-03-06T07:07:41.100Z,7.78
2018-03-06T07:08:41.080Z,7.91
2018-03-06T07:09:41.065Z,8.02
2018-03-06T07:10:41.052Z,8.20
2018-03-06T07:11:41.030Z,7.95
2018-03-06T07:12:41.011Z,7.64
2018-03-06T07:13:41.000Z,7.52
2018-03-06T07:14:40.980Z,7.37
2018-03-06T07:15:40.965Z,7.11
2018-03-06T07:16:40.948Z,7.04
2018-03-06T07:17:40.940Z,7.01
2018-03-06T07:18:40.912Z,7.24
2018-03-06T07:19:40.899Z,7.37
2018-03-06T07:20:40.881Z,7.58
2018-03-06T07:21:40.866Z,7.74
2018-03-06T07:22:40.852Z,8.02
2018-03-06T07:23:40.835Z,8.37
2018-03-06T07:24:40.832Z,8.50
2018-03-06T07:25:40.805Z,8.71
2018-03-06T07:26:40.792Z,8.89
2018-03-06T07:27:40.785Z,8.88
2018-03-06T07:28:40.761Z,9.01
2018-03-06T07:29:40.800Z,9.03
2018-03-06T07:30:40.741Z,9.12
2018-03-06T07:31:40.725Z,9.22
2018-03-06T07:32:40.712Z,9.32
2018-03-06T07:33:40.696Z,9.27
2018-03-06T07:34:40.691Z,9.57
2018-03-06T07:35:40.680Z,9.88
2018-03-06T07:36:40.659Z,10.17
2018-03-06T07:37:40.662Z,10.52
2018-03-06T07:38:40.641Z,10.80
2018-03-06T07:39:40.628Z,11.16
2018-03-06T07:40:40.620Z,11.45
2018-03-06T07:41:40.608Z,11.69
2018-03-06T07:42:40.598Z,11.89
2018-03-06T07:43:40.588Z,12.13
2018-03-06T07:44:40.575Z,12.41
2018-03-06T07:45:40.716Z,12.63
2018-03-06T07:46:40.553Z,12.80
2018-03-06T07:47:40.649Z,12.77
2018-03-06T07:48:40.541Z,11.96
2018-03-06T07:49:40.591Z,11.71
2018-03-06T07:50:40.518Z,11.77
2018-03-06T07:51:40.562Z,11.45
2018-03-06T07:52:40.500Z,11.70
2018-03-06T07:53:40.545Z,12.08
2018-03-06T07:54:40.483Z,11.95
2018-03-06T07:55:40.528Z,12.13
2018-03-06T07:56:40.466Z,11.97
2018-03-06T07:57:40.461Z,11.84
2018-03-06T07:58:40.451Z,12.00
2018-03-06T07:59:40.451Z,12.62
2018-03-06T08:00:40.436Z,12.99
2018-03-06T08:01:40.422Z,13.24
2018-03-06T08:02:40.418Z,13.53
2018-03-06T08:03:40.410Z,13.76
2018-03-06T08:04:40.399Z,14.12
2018-03-06T08:05:40.390Z,14.18
2018-03-06T08:06:40.382Z,14.58
2018-03-06T08:07:40.378Z,15.10
2018-03-06T08:08:40.366Z,15.45
2018-03-06T08:09:40.371Z,15.77
2018-03-06T08:10:40.360Z,15.91
2018-03-06T08:11:40.376Z,15.22
2018-03-06T08:12:40.349Z,15.50
2018-03-06T08:13:40.334Z,15.83
2018-03-06T08:14:40.328Z,15.93
2018-03-06T08:15:40.322Z,15.99
2018-03-06T08:16:40.323Z,16.44
2018-03-06T08:17:40.310Z,15.54
2018-03-06T08:18:40.311Z,14.99
2018-03-06T08:19:40.297Z,14.96
2018-03-06T08:20:40.291Z,15.44
2018-03-06T08:21:40.286Z,15.78
2018-03-06T08:22:40.342Z,16.22
2018-03-06T08:23:40.279Z,16.29
2018-03-06T08:24:40.273Z,16.05
2018-03-06T08:25:40.268Z,14.97
2018-03-06T08:26:40.412Z,15.11
2018-03-06T08:27:40.256Z,15.32
2018-03-06T08:28:40.302Z,15.35
2018-03-06T08:29:40.246Z,15.66
2018-03-06T08:30:40.242Z,15.36
2018-03-06T08:31:40.241Z,15.29
2018-03-06T08:32:40.233Z,15.58
2018-03-06T08:33:40.233Z,16.42
2018-03-06T08:34:40.222Z,17.01
2018-03-06T08:35:40.216Z,17.52
2018-03-06T08:36:40.214Z,17.72
2018-03-06T08:37:40.229Z,18.17
2018-03-06T08:38:40.207Z,16.91
2018-03-06T08:39:40.205Z,16.72
2018-03-06T08:40:40.200Z,16.94
2018-03-06T08:41:40.198Z,17.14
2018-03-06T08:42:40.192Z,16.98
2018-03-06T08:43:40.229Z,17.50
2018-03-06T08:44:40.182Z,17.86
2018-03-06T08:45:40.181Z,18.18
2018-03-06T08:46:40.179Z,18.42
2018-03-06T08:47:40.172Z,17.20
2018-03-06T08:48:40.170Z,17.49
2018-03-06T08:49:40.172Z,17.73
2018-03-06T08:50:40.162Z,17.43
2018-03-06T08:51:40.157Z,17.88
2018-03-06T08:52:40.154Z,17.84
2018-03-06T08:53:40.152Z,17.73
2018-03-06T08:54:40.152Z,17.88
2018-03-06T08:55:40.145Z,17.63
2018-03-06T08:56:40.148Z,17.68
2018-03-06T08:57:40.159Z,18.24
2018-03-06T08:58:40.138Z,18.54
2018-03-06T08:59:40.139Z,18.81
2018-03-06T09:00:40.129Z,18.60
2018-03-06T09:01:40.125Z,18.54
2018-03-06T09:02:40.120Z,18.43
2018-03-06T09:03:40.134Z,18.54
2018-03-06T09:04:40.114Z,18.82
2018-03-06T09:05:40.111Z,18.67
2018-03-06T09:06:40.109Z,18.71
2018-03-06T09:07:40.108Z,18.42
2018-03-06T09:08:40.101Z,17.72
2018-03-06T09:09:40.102Z,17.96
2018-03-06T09:10:40.098Z,18.01
2018-03-06T09:11:40.099Z,18.18
2018-03-06T09:12:40.089Z,18.17
2018-03-06T09:13:40.089Z,18.52
2018-03-06T09:14:40.090Z,17.59
2018-03-06T09:15:40.082Z,17.43
2018-03-06T09:16:40.081Z,17.24
2018-03-06T09:17:40.073Z,17.63
2018-03-06T09:18:40.077Z,18.13
2018-03-06T09:19:40.068Z,18.03
2018-03-06T09:20:40.061Z,18.21
2018-03-06T09:21:40.057Z,18.46
2018-03-06T09:22:40.058Z,18.98
2018-03-06T09:23:40.063Z,19.30
2018-03-06T09:24:40.052Z,19.63
2018-03-06T09:25:40.046Z,19.81
2018-03-06T09:26:40.050Z,20.42
2018-03-06T09:27:40.046Z,20.73
2018-03-06T09:28:40.038Z,21.23
2018-03-06T09:29:40.039Z,21.04
2018-03-06T09:30:40.030Z,21.30
2018-03-06T09:31:40.027Z,21.08
2018-03-06T09:32:40.024Z,21.00
2018-03-06T09:33:40.018Z,20.82
2018-03-06T09:34:40.021Z,20.46
2018-03-06T09:35:40.020Z,19.44
2018-03-06T09:36:40.010Z,19.31
2018-03-06T09:37:40.008Z,19.27
2018-03-06T09:38:40.014Z,19.09
2018-03-06T09:39:40.005Z,19.52
2018-03-06T09:40:39.999Z,19.75
2018-03-06T09:41:40.001Z,20.14
2018-03-06T09:42:39.992Z,20.70
2018-03-06T09:43:39.988Z,20.53
2018-03-06T09:44:39.980Z,20.27
2018-03-06T09:45:39.978Z,20.60
2018-03-06T09:46:39.985Z,19.38
2018-03-06T09:47:39.979Z,18.18
2018-03-06T09:48:39.967Z,17.94
2018-03-06T09:49:39.961Z,18.13
2018-03-06T09:50:39.960Z,18.74
2018-03-06T09:51:39.955Z,19.13
2018-03-06T09:52:39.949Z,19.59
2018-03-06T09:53:39.949Z,19.50
2018-03-06T09:54:39.941Z,19.97
2018-03-06T09:55:39.949Z,20.18
2018-03-06T09:56:39.929Z,20.42
2018-03-06T09:57:39.926Z,20.46
2018-03-06T09:58:39.919Z,20.68
2018-03-06T09:59:39.916Z,20.25
2018-03-06T10:00:39.914Z,20.22
2018-03-06T10:01:39.906Z,20.25
2018-03-06T10:02:39.904Z,20.73
2018-03-06T10:03:39.902Z,20.74
2018-03-06T10:04:39.888Z,20.52
2018-03-06T10:05:39.885Z,20.86
2018-03-06T10:06:39.878Z,21.38
2018-03-06T10:07:39.929Z,21.41
2018-03-06T10:08:39.871Z,21.19
2018-03-06T10:09:39.872Z,20.89
2018-03-06T10:10:39.863Z,20.22
2018-03-06T10:11:39.857Z,20.65
2018-03-06T10:12:39.849Z,20.97
2018-03-06T10:13:39.846Z,20.49
2018-03-06T10:14:39.837Z,20.19
2018-03-06T10:15:39.844Z,20.75
2018-03-06T10:16:39.843Z,21.00
2018-03-06T10:17:39.820Z,21.05
2018-03-06T10:18:39.826Z,21.35
2018-03-06T10:19:39.809Z,21.20
2018-03-06T10:20:39.809Z,21.50
2018-03-06T10:21:39.795Z,21.51
2018-03-06T10:22:39.793Z,21.75
2018-03-06T10:23:39.788Z,21.50
2018-03-06T10:24:39.780Z,21.73
2018-03-06T10:25:39.774Z,21.55
2018-03-06T10:26:39.770Z,21.00
2018-03-06T10:27:39.762Z,20.46
2018-03-06T10:28:39.760Z,20.97
2018-03-06T10:29:39.751Z,21.13
2018-03-06T10:30:39.748Z,20.55
2018-03-06T10:31:39.740Z,19.77
2018-03-06T10:32:39.735Z,20.12
2018-03-06T10:33:39.727Z,20.58
2018-03-06T10:34:39.859Z,20.44
2018-03-06T10:35:39.725Z,20.74
2018-03-06T10:36:39.715Z,20.26
2018-03-06T10:37:39.701Z,19.45
2018-03-06T10:38:39.782Z,19.47
2018-03-06T10:39:39.691Z,19.54
2018-03-06T10:40:39.758Z,19.63
2018-03-06T10:41:39.676Z,20.07
2018-03-06T10:42:39.718Z,19.50
2018-03-06T10:43:39.670Z,19.75
2018-03-06T10:44:39.664Z,19.50
2018-03-06T10:45:39.649Z,19.93
2018-03-06T10:46:39.671Z,20.09
2018-03-06T10:47:39.635Z,20.09
2018-03-06T10:48:39.630Z,20.23
2018-03-06T10:49:39.658Z,19.44
2018-03-06T10:50:39.619Z,19.41
2018-03-06T10:51:39.610Z,19.20
2018-03-06T10:52:39.600Z,19.13
2018-03-06T10:53:39.595Z,19.34
2018-03-06T10:54:39.595Z,18.91
2018-03-06T10:55:39.582Z,19.12
2018-03-06T10:56:39.575Z,19.16
2018-03-06T10:57:39.566Z,18.97
2018-03-06T10:58:39.562Z,18.45
2018-03-06T10:59:39.562Z,18.78
2018-03-06T11:00:39.547Z,18.61
2018-03-06T11:01:39.540Z,19.01
2018-03-06T11:02:39.530Z,18.61
2018-03-06T11:03:39.524Z,17.10
2018-03-06T11:04:39.515Z,16.73
2018-03-06T11:05:39.509Z,15.90
2018-03-06T11:06:39.502Z,16.18
2018-03-06T11:07:39.495Z,16.33
2018-03-06T11:08:39.500Z,16.26
2018-03-06T11:09:39.479Z,16.82
2018-03-06T11:10:39.470Z,17.46
2018-03-06T11:11:39.468Z,18.02
2018-03-06T11:12:39.460Z,18.24
2018-03-06T11:13:39.444Z,18.64
2018-03-06T11:14:39.486Z,19.13
2018-03-06T11:15:39.434Z,19.42
2018-03-06T11:16:39.421Z,18.96
2018-03-06T11:17:39.416Z,18.43
2018-03-06T11:18:39.406Z,18.75
2018-03-06T11:19:39.499Z,19.01
2018-03-06T11:20:39.385Z,19.22
2018-03-06T11:21:39.381Z,19.08
2018-03-06T11:22:39.371Z,19.30
2018-03-06T11:23:39.378Z,19.34
2018-03-06T11:24:39.396Z,17.50
2018-03-06T11:25:39.351Z,17.37
2018-03-06T11:26:39.339Z,17.46
2018-03-06T11:27:39.333Z,17.65
2018-03-06T11:28:39.328Z,17.84
2018-03-06T11:29:39.315Z,18.02
2018-03-06T11:30:39.320Z,17.49
2018-03-06T11:31:39.298Z,17.25
2018-03-06T11:32:39.292Z,16.95
2018-03-06T11:33:39.289Z,17.41
2018-03-06T11:34:39.279Z,17.97
2018-03-06T11:35:39.263Z,18.27
2018-03-06T11:36:39.258Z,17.91
2018-03-06T11:37:39.250Z,18.17
2018-03-06T11:38:39.240Z,18.46
2018-03-06T11:39:39.229Z,18.64
2018-03-06T11:40:39.220Z,18.79
2018-03-06T11:41:39.213Z,19.04
2018-03-06T11:42:39.208Z,17.87
2018-03-06T11:43:39.202Z,17.88
2018-03-06T11:44:39.192Z,17.83
2018-03-06T11:45:39.181Z,18.17
2018-03-06T11:46:39.169Z,18.42
2018-03-06T11:47:39.172Z,18.70
2018-03-06T11:48:39.155Z,18.82
2018-03-06T11:49:39.147Z,18.43
2018-03-06T11:50:39.142Z,18.43
2018-03-06T11:51:39.132Z,18.63
2018-03-06T11:52:39.116Z,18.67
2018-03-06T11:53:39.108Z,18.82
2018-03-06T11:54:39.102Z,19.04
2018-03-06T11:55:39.091Z,19.38
2018-03-06T11:56:39.080Z,19.38
2018-03-06T11:57:39.076Z,19.47
2018-03-06T11:58:39.081Z,19.53
2018-03-06T11:59:39.052Z,19.32
2018-03-06T12:00:39.050Z,19.19
2018-03-06T12:01:39.045Z,19.22
2018-03-06T12:02:39.029Z,19.27
2018-03-06T12:03:39.017Z,19.41
2018-03-06T12:04:39.009Z,19.38
2018-03-06T12:05:39.004Z,19.23
2018-03-06T12:06:38.992Z,19.17
2018-03-06T12:07:38.989Z,19.17
2018-03-06T12:08:38.985Z,18.86
2018-03-06T12:09:38.966Z,18.78
2018-03-06T12:10:38.960Z,18.64
2018-03-06T12:11:38.951Z,18.48
2018-03-06T12:12:38.936Z,18.24
2018-03-06T12:13:38.928Z,18.17
2018-03-06T12:14:38.923Z,17.57
2018-03-06T12:15:38.910Z,17.17
2018-03-06T12:16:38.897Z,17.28
2018-03-06T12:17:38.886Z,17.41
2018-03-06T12:18:38.922Z,17.49
2018-03-06T12:19:38.870Z,17.68
2018-03-06T12:20:38.857Z,17.78
2018-03-06T12:21:38.850Z,17.84
2018-03-06T12:22:38.840Z,17.88
2018-03-06T12:23:38.830Z,18.02
2018-03-06T12:24:38.822Z,18.11
2018-03-06T12:25:38.809Z,18.20
2018-03-06T12:26:38.815Z,18.18
2018-03-06T12:27:38.789Z,18.13
2018-03-06T12:28:38.780Z,17.49
2018-03-06T12:29:38.780Z,17.49
2018-03-06T12:30:38.760Z,17.43
2018-03-06T12:31:38.752Z,17.53
2018-03-06T12:32:38.744Z,17.49
2018-03-06T12:33:38.727Z,17.49
2018-03-06T12:34:38.722Z,17.53
2018-03-06T12:35:38.714Z,17.56
2018-03-06T12:36:38.700Z,17.68
2018-03-06T12:37:38.688Z,17.59
2018-03-06T12:38:38.680Z,17.75
2018-03-06T12:39:38.665Z,17.50
2018-03-06T12:40:38.662Z,16.73
2018-03-06T12:41:38.657Z,16.44
2018-03-06T12:42:38.639Z,16.62
2018-03-06T12:43:38.635Z,16.82
2018-03-06T12:44:38.618Z,16.69
2018-03-06T12:45:38.600Z,16.97
2018-03-06T12:46:38.596Z,17.09
2018-03-06T12:47:38.586Z,17.35
2018-03-06T12:48:38.570Z,17.47
2018-03-06T12:49:38.562Z,17.06
2018-03-06T12:50:38.551Z,17.04
2018-03-06T12:51:38.552Z,17.22
2018-03-06T12:52:38.533Z,17.28
2018-03-06T12:53:38.526Z,17.37
2018-03-06T12:54:38.508Z,17.49
2018-03-06T12:55:38.504Z,17.57
2018-03-06T12:56:38.491Z,16.87
2018-03-06T12:57:38.571Z,16.82
2018-03-06T12:58:38.465Z,16.72
2018-03-06T12:59:38.491Z,16.44
2018-03-06T13:00:38.441Z,16.61
2018-03-06T13:01:38.431Z,16.34
2018-03-06T13:02:38.420Z,16.25
2018-03-06T13:03:38.511Z,16.44
2018-03-06T13:04:38.422Z,16.65
2018-03-06T13:05:38.539Z,16.67
2018-03-06T13:06:38.380Z,16.94
2018-03-06T13:07:38.372Z,17.01